Time;durP1;ratioP1;P1;durP2;ratioP2;P2;SDS_P1;SDS_P2;PMS_P1;PMS_P2;Temp;Humidity;BMP_temperature;BMP_pressure;BME280_temperature;BME280_humidity;BME280_pressure;Samples;Min_cycle;Max_cycle;Signal;HPM_P1;HPM_P2
2021/04/27 00:02:14;;;;;;;9.17;4.63;;;9.70;55.60;;;;;;5108647;28;20016;-85
2021/04/27 00:04:40;;;;;;;7.28;4.13;;;9.70;55.70;;;;;;5107735;28;20039;-84
2021/04/27 00:07:05;;;;;;;9.13;4.40;;;9.70;55.40;;;;;;5107705;28;20024;-84
2021/04/27 00:09:31;;;;;;;8.80;4.47;;;9.70;55.20;;;;;;5105387;28;20027;-84
2021/04/27 00:11:56;;;;;;;8.10;4.50;;;9.70;55.80;;;;;;5107200;28;20024;-83
2021/04/27 00:14:22;;;;;;;9.03;4.40;;;9.70;55.30;;;;;;5105931;28;20031;-84
2021/04/27 00:16:48;;;;;;;14.53;4.80;;;9.70;55.20;;;;;;5105091;28;20468;-84
2021/04/27 00:19:13;;;;;;;10.20;4.50;;;9.60;55.20;;;;;;5105316;28;20443;-83
2021/04/27 00:21:39;;;;;;;10.37;4.53;;;9.70;55.00;;;;;;5103700;28;20518;-84
2021/04/27 00:24:06;;;;;;;7.63;4.40;;;9.70;54.60;;;;;;5105143;28;20035;-83
2021/04/27 00:26:33;;;;;;;9.77;4.17;;;9.70;54.60;;;;;;5103901;28;20399;-83
2021/04/27 00:28:58;;;;;;;9.47;4.37;;;9.70;54.50;;;;;;5103436;28;20110;-84
2021/04/27 00:31:27;;;;;;;12.23;4.13;;;9.70;55.10;;;;;;5104018;28;20123;-83
2021/04/27 00:33:54;;;;;;;9.75;4.60;;;9.60;54.60;;;;;;5105442;28;20026;-84
2021/04/27 00:36:19;;;;;;;11.83;4.83;;;9.70;54.70;;;;;;5097417;28;20059;-82
2021/04/27 00:38:45;;;;;;;9.73;4.30;;;9.70;54.60;;;;;;5093876;28;20078;-83
2021/04/27 00:41:11;;;;;;;9.83;4.67;;;9.70;54.40;;;;;;5093429;28;20028;-83
2021/04/27 00:43:37;;;;;;;9.43;4.17;;;9.60;54.50;;;;;;5092087;28;20035;-83
2021/04/27 00:46:03;;;;;;;7.93;4.40;;;9.70;54.60;;;;;;5092364;28;20468;-83
2021/04/27 00:48:29;;;;;;;11.43;4.20;;;9.60;54.90;;;;;;5092311;28;20034;-83
2021/04/27 00:50:54;;;;;;;10.60;4.70;;;9.60;54.80;;;;;;5093430;28;20099;-83
2021/04/27 00:53:20;;;;;;;9.93;4.60;;;9.60;54.60;;;;;;5092345;28;20111;-83
2021/04/27 00:55:46;;;;;;;6.90;4.50;;;9.60;54.60;;;;;;5094152;28;20016;-84
2021/04/27 00:58:12;;;;;;;7.47;4.63;;;9.50;54.90;;;;;;5093759;28;20020;-83
2021/04/27 01:00:42;;;;;;;8.77;4.60;;;9.40;55.20;;;;;;5091540;28;20020;-83
2021/04/27 01:03:08;;;;;;;7.67;4.50;;;9.40;55.40;;;;;;5093298;28;20020;-83
2021/04/27 01:05:36;;;;;;;7.87;4.73;;;9.30;55.40;;;;;;5093252;28;20027;-83
2021/04/27 01:08:24;;;;;;;10.50;4.67;;;9.40;55.40;;;;;;5093555;28;20043;-83
2021/04/27 01:11:10;;;;;;;13.73;5.33;;;9.40;55.50;;;;;;5093130;28;20024;-82
2021/04/27 01:13:58;;;;;;;8.63;4.73;;;9.30;55.60;;;;;;5094193;28;20028;-82
2021/04/27 01:16:25;;;;;;;11.27;4.97;;;9.30;55.90;;;;;;5079177;28;20085;-83
2021/04/27 01:18:53;;;;;;;9.33;5.13;;;9.30;55.70;;;;;;5092088;28;20420;-82
2021/04/27 01:21:21;;;;;;;10.77;4.83;;;9.30;55.90;;;;;;5093723;28;20024;-83
2021/04/27 01:24:02;;;;;;;8.35;4.22;;;9.30;55.90;;;;;;5092076;28;20507;-83
2021/04/27 01:26:33;;;;;;;8.63;4.30;;;9.10;56.20;;;;;;5093435;28;20024;-82
2021/04/27 01:29:00;;;;;;;10.13;5.10;;;9.20;56.00;;;;;;5093211;28;20052;-83
2021/04/27 01:31:27;;;;;;;9.27;4.30;;;9.20;56.00;;;;;;5093782;28;20040;-83
2021/04/27 01:33:53;;;;;;;9.60;4.80;;;9.10;56.20;;;;;;5092449;28;20112;-83
2021/04/27 01:36:19;;;;;;;10.63;4.73;;;9.20;55.90;;;;;;5092279;28;20035;-82
2021/04/27 01:38:45;;;;;;;10.77;4.70;;;9.10;56.20;;;;;;5093783;28;20058;-84
2021/04/27 01:41:11;;;;;;;7.07;4.00;;;9.10;56.10;;;;;;5091537;28;20032;-83
2021/04/27 01:43:37;;;;;;;9.67;4.90;;;9.00;56.40;;;;;;5094305;22;20118;-85
2021/04/27 01:46:06;;;;;;;7.30;4.20;;;9.10;56.20;;;;;;5054364;28;20392;-85
2021/04/27 01:48:35;;;;;;;10.80;4.57;;;9.10;56.20;;;;;;5053437;28;20503;-85
2021/04/27 01:51:01;;;;;;;7.15;4.55;;;9.00;56.40;;;;;;5053968;28;20035;-85
2021/04/27 01:53:28;;;;;;;9.53;4.67;;;8.90;56.70;;;;;;5067358;28;20084;-85
2021/04/27 01:55:53;;;;;;;6.80;4.13;;;8.80;57.50;;;;;;5075071;28;20067;-85
2021/04/27 01:58:19;;;;;;;8.93;4.63;;;8.80;57.50;;;;;;5074103;28;20056;-85
2021/04/27 02:00:45;;;;;;;7.27;4.27;;;8.80;57.50;;;;;;5073476;28;20024;-85
2021/04/27 02:03:11;;;;;;;10.27;5.00;;;8.80;57.10;;;;;;5074035;28;20047;-85
2021/04/27 02:05:38;;;;;;;8.33;4.67;;;8.80;57.60;;;;;;5073651;28;20477;-85
2021/04/27 02:08:03;;;;;;;7.30;4.37;;;8.80;57.80;;;;;;5073941;28;20031;-85
2021/04/27 02:10:29;;;;;;;9.73;5.00;;;8.80;57.80;;;;;;5073186;28;20020;-85
2021/04/27 02:13:04;;;;;;;12.13;5.23;;;8.60;58.30;;;;;;5073807;28;20024;-85
2021/04/27 02:15:30;;;;;;;9.37;4.53;;;8.60;58.40;;;;;;5073658;28;20538;-85
2021/04/27 02:18:14;;;;;;;7.93;4.80;;;8.60;58.50;;;;;;5073766;28;20035;-85
2021/04/27 02:20:41;;;;;;;10.23;4.37;;;8.40;58.80;;;;;;5073395;28;20028;-85
2021/04/27 02:23:07;;;;;;;8.23;4.77;;;8.40;59.20;;;;;;5073549;28;20032;-85
2021/04/27 02:25:33;;;;;;;8.40;4.90;;;8.40;59.20;;;;;;5091843;28;20214;-85
2021/04/27 02:27:59;;;;;;;12.87;4.97;;;8.30;59.80;;;;;;5073561;28;20062;-85
2021/04/27 02:30:26;;;;;;;7.93;4.70;;;8.40;59.90;;;;;;5072124;28;20480;-85
2021/04/27 02:32:53;;;;;;;9.70;4.77;;;8.30;59.90;;;;;;5090595;28;20089;-85
2021/04/27 02:35:20;;;;;;;8.73;5.00;;;8.30;60.00;;;;;;5073290;28;20054;-85
2021/04/27 02:37:49;;;;;;;7.57;4.83;;;8.30;60.80;;;;;;5073138;28;20207;-85
2021/04/27 02:40:23;;;;;;;21.83;9.65;;;8.30;60.50;;;;;;5072725;28;20096;-85
2021/04/27 02:42:55;;;;;;;7.77;4.63;;;8.20;61.00;;;;;;5072824;28;20430;-85
2021/04/27 02:45:30;;;;;;;11.50;4.53;;;8.20;61.30;;;;;;5091324;28;20059;-85
2021/04/27 02:48:07;;;;;;;8.70;5.23;;;8.10;61.60;;;;;;5073158;28;20480;-85
2021/04/27 02:50:33;;;;;;;7.47;4.77;;;8.10;61.80;;;;;;5072219;28;20027;-85
2021/04/27 02:52:59;;;;;;;9.13;4.90;;;8.00;62.00;;;;;;5072881;28;20106;-85
2021/04/27 02:55:25;;;;;;;8.77;5.20;;;8.00;62.20;;;;;;5072943;28;20545;-85
2021/04/27 02:57:50;;;;;;;13.93;4.90;;;7.90;62.60;;;;;;5072804;28;20069;-85
2021/04/27 03:00:16;;;;;;;9.27;4.77;;;7.80;63.00;;;;;;5072537;28;20052;-85
2021/04/27 03:02:42;;;;;;;11.97;5.60;;;7.80;63.30;;;;;;5072216;28;20111;-85
2021/04/27 03:05:08;;;;;;;8.33;5.00;;;7.90;63.50;;;;;;5091146;28;20499;-85
2021/04/27 03:07:34;;;;;;;8.50;4.80;;;7.80;63.70;;;;;;5072852;28;20024;-85
2021/04/27 03:09:59;;;;;;;8.87;4.80;;;7.80;64.20;;;;;;5072860;28;20027;-82
2021/04/27 03:12:25;;;;;;;8.73;5.00;;;7.70;64.40;;;;;;5072482;28;20412;-85
2021/04/27 03:14:51;;;;;;;12.00;5.10;;;7.60;64.90;;;;;;5073605;28;20413;-85
2021/04/27 03:17:16;;;;;;;12.67;5.57;;;7.60;65.10;;;;;;5073396;28;20522;-87
2021/04/27 03:19:42;;;;;;;10.70;4.97;;;7.50;65.30;;;;;;5090482;28;20160;-86
2021/04/27 03:22:08;;;;;;;9.17;4.97;;;7.50;65.70;;;;;;5072590;28;20027;-87
2021/04/27 03:24:33;;;;;;;9.63;4.73;;;7.50;65.80;;;;;;5073337;28;20031;-87
2021/04/27 03:26:59;;;;;;;11.37;5.30;;;7.40;66.60;;;;;;5072626;28;20020;-87
2021/04/27 03:29:25;;;;;;;11.97;5.33;;;7.40;66.00;;;;;;5090394;28;20024;-86
2021/04/27 03:31:50;;;;;;;9.27;5.33;;;7.30;66.30;;;;;;5073729;28;20024;-87
2021/04/27 03:34:16;;;;;;;11.00;5.43;;;7.30;66.30;;;;;;5072908;28;20045;-86
2021/04/27 03:36:41;;;;;;;8.33;5.03;;;7.40;66.40;;;;;;5092352;28;20032;-85
2021/04/27 03:39:07;;;;;;;10.13;5.73;;;7.00;68.60;;;;;;5074463;28;20024;-84
2021/04/27 03:41:33;;;;;;;7.83;5.17;;;6.70;69.70;;;;;;5092536;28;20491;-84
2021/04/27 03:43:58;;;;;;;11.10;5.20;;;6.60;69.90;;;;;;5073460;28;20138;-83
2021/04/27 03:46:24;;;;;;;9.97;5.50;;;6.50;70.30;;;;;;5091861;28;20455;-83
2021/04/27 03:48:50;;;;;;;10.30;5.17;;;6.70;70.30;;;;;;5091941;28;20024;-83
2021/04/27 03:51:15;;;;;;;11.17;5.20;;;6.40;70.40;;;;;;5073110;28;20024;-84
2021/04/27 03:53:41;;;;;;;12.67;5.27;;;6.50;71.40;;;;;;5073674;28;20028;-83
2021/04/27 03:56:06;;;;;;;9.70;5.17;;;6.60;71.40;;;;;;5074330;28;20125;-83
2021/04/27 03:58:32;;;;;;;9.40;5.07;;;6.60;70.40;;;;;;5074272;28;20031;-83
2021/04/27 04:00:58;;;;;;;10.13;4.87;;;6.60;70.20;;;;;;5073394;28;20027;-84
2021/04/27 04:03:23;;;;;;;10.33;5.20;;;6.70;70.40;;;;;;5074136;28;20036;-84
2021/04/27 04:05:50;;;;;;;11.60;5.27;;;6.80;70.10;;;;;;5073727;28;20120;-83
2021/04/27 04:08:16;;;;;;;9.90;5.57;;;6.90;69.40;;;;;;5074360;28;20111;-84
2021/04/27 04:10:41;;;;;;;12.90;5.53;;;6.90;69.50;;;;;;5074688;28;20441;-83
2021/04/27 04:13:07;;;;;;;13.03;6.07;;;6.90;69.00;;;;;;5096073;28;20032;-83
2021/04/27 04:15:34;;;;;;;11.03;5.63;;;6.90;68.60;;;;;;5096103;28;20028;-84
2021/04/27 04:18:00;;;;;;;13.87;5.73;;;7.00;68.90;;;;;;5077949;28;20026;-84
2021/04/27 04:20:26;;;;;;;10.03;5.57;;;7.00;68.80;;;;;;5096045;28;20052;-84
2021/04/27 04:22:52;;;;;;;12.93;5.43;;;7.00;68.90;;;;;;5077894;28;20031;-84
2021/04/27 04:25:19;;;;;;;15.93;7.13;;;6.90;69.10;;;;;;5078227;28;20052;-84
2021/04/27 04:27:45;;;;;;;14.40;6.10;;;7.00;69.40;;;;;;5078182;28;20020;-86
2021/04/27 04:30:19;;;;;;;10.60;5.67;;;6.80;69.60;;;;;;5072927;28;20116;-87
2021/04/27 04:33:01;;;;;;;11.80;5.37;;;7.00;69.00;;;;;;5072802;28;20024;-90
2021/04/27 04:35:28;;;;;;;9.53;5.53;;;7.20;68.50;;;;;;5058514;28;20056;-90
2021/04/27 04:37:54;;;;;;;11.30;5.77;;;7.20;68.30;;;;;;5059113;28;20075;-91
2021/04/27 04:40:20;;;;;;;11.50;5.13;;;7.20;68.40;;;;;;5056148;28;20489;-90
2021/04/27 04:42:46;;;;;;;11.20;5.47;;;7.20;68.20;;;;;;5055532;28;20024;-87
2021/04/27 04:45:13;;;;;;;11.03;5.70;;;7.20;68.40;;;;;;5055824;28;20557;-87
2021/04/27 04:47:40;;;;;;;15.67;6.37;;;7.20;68.50;;;;;;5055602;28;20107;-85
2021/04/27 04:50:07;;;;;;;12.40;5.90;;;7.30;68.40;;;;;;5055235;28;20505;-86
2021/04/27 04:52:33;;;;;;;10.93;5.80;;;7.30;68.40;;;;;;5074210;28;20059;-85
2021/04/27 04:54:59;;;;;;;11.33;5.63;;;7.20;68.50;;;;;;5055487;28;20484;-87
2021/04/27 04:57:24;;;;;;;10.97;5.53;;;7.30;68.70;;;;;;5055298;28;20046;-86
2021/04/27 04:59:50;;;;;;;10.47;5.00;;;7.30;68.40;;;;;;5054980;28;20032;-85
2021/04/27 05:02:16;;;;;;;10.50;5.40;;;7.20;68.30;;;;;;5055994;28;20082;-85
2021/04/27 05:04:42;;;;;;;10.57;5.57;;;7.30;68.60;;;;;;5073458;28;20039;-85
2021/04/27 05:07:16;;;;;;;11.23;6.00;;;7.30;68.50;;;;;;5055401;28;20460;-88
2021/04/27 05:09:42;;;;;;;10.60;5.10;;;7.30;68.20;;;;;;5073103;28;20028;-90
2021/04/27 05:12:09;;;;;;;12.23;5.43;;;7.20;68.70;;;;;;5055827;28;20449;-89
2021/04/27 05:14:40;;;;;;;13.50;5.73;;;7.30;68.40;;;;;;5056132;28;20090;-91
2021/04/27 05:17:07;;;;;;;15.03;5.30;;;7.50;67.80;;;;;;5055910;28;20119;-85
2021/04/27 05:19:33;;;;;;;13.03;5.43;;;7.40;67.50;;;;;;5054472;28;20085;-87
2021/04/27 05:22:00;;;;;;;12.23;5.40;;;7.40;67.40;;;;;;5054688;28;20020;-87
2021/04/27 05:24:27;;;;;;;13.83;5.60;;;7.50;67.20;;;;;;5055569;28;20561;-84
2021/04/27 05:26:53;;;;;;;17.73;6.03;;;7.50;67.60;;;;;;5054640;28;20086;-89
2021/04/27 05:29:18;;;;;;;12.27;5.40;;;7.60;67.40;;;;;;5072677;28;20119;-84
2021/04/27 05:31:44;;;;;;;9.97;5.77;;;7.60;66.70;;;;;;5072548;28;20123;-84
2021/04/27 05:34:10;;;;;;;13.00;5.47;;;7.60;66.60;;;;;;5054798;28;20036;-83
2021/04/27 05:36:36;;;;;;;12.10;5.60;;;7.70;66.60;;;;;;5073848;28;20024;-85
2021/04/27 05:39:02;;;;;;;20.07;7.20;;;7.80;66.20;;;;;;5072272;28;20029;-83
2021/04/27 05:41:27;;;;;;;13.17;5.70;;;7.80;66.10;;;;;;5072703;28;20028;-88
2021/04/27 05:43:53;;;;;;;10.63;5.60;;;7.90;65.60;;;;;;5054531;28;20460;-85
2021/04/27 05:46:19;;;;;;;15.13;5.57;;;8.00;64.80;;;;;;5072966;28;20082;-86
2021/04/27 05:48:44;;;;;;;14.63;4.87;;;8.10;64.60;;;;;;5055400;28;20064;-85
2021/04/27 05:51:10;;;;;;;8.97;4.90;;;8.10;64.00;;;;;;5054187;28;20032;-83
2021/04/27 05:53:36;;;;;;;14.13;5.87;;;8.20;63.50;;;;;;5054617;28;20515;-84
2021/04/27 05:56:02;;;;;;;10.77;4.90;;;8.20;63.30;;;;;;5054171;28;20048;-84
2021/04/27 05:58:27;;;;;;;10.10;5.50;;;8.30;62.80;;;;;;5054285;28;20111;-86
2021/04/27 06:00:53;;;;;;;13.47;5.23;;;8.30;62.30;;;;;;5053609;28;20156;-86
2021/04/27 06:03:25;;;;;;;11.03;4.53;;;8.40;61.70;;;;;;5072033;28;20035;-88
2021/04/27 06:05:51;;;;;;;10.10;4.60;;;8.50;61.00;;;;;;5055544;28;20028;-83
2021/04/27 06:08:16;;;;;;;8.67;4.60;;;8.50;60.30;;;;;;5072885;28;20556;-84
2021/04/27 06:10:42;;;;;;;8.10;4.27;;;8.50;60.00;;;;;;5054819;28;20093;-85
2021/04/27 06:13:08;;;;;;;10.47;4.87;;;8.60;59.50;;;;;;5055847;28;20025;-84
2021/04/27 06:15:33;;;;;;;10.77;4.20;;;8.60;59.70;;;;;;5055057;28;20636;-83
2021/04/27 06:17:59;;;;;;;14.20;4.30;;;8.60;59.70;;;;;;5054285;28;20082;-85
2021/04/27 06:20:25;;;;;;;10.67;4.33;;;8.70;59.50;;;;;;5071468;28;20021;-84
2021/04/27 06:22:50;;;;;;;11.67;4.60;;;8.70;59.50;;;;;;5073246;28;20146;-85
2021/04/27 06:25:16;;;;;;;11.57;5.00;;;8.70;60.60;;;;;;5056562;28;20054;-83
2021/04/27 06:27:42;;;;;;;11.93;5.10;;;8.80;61.00;;;;;;5054116;28;20039;-85
2021/04/27 06:30:09;;;;;;;8.90;4.50;;;8.80;59.30;;;;;;5053959;28;20024;-85
2021/04/27 06:32:35;;;;;;;12.50;4.30;;;8.80;59.40;;;;;;5055472;28;20040;-84
2021/04/27 06:35:02;;;;;;;18.30;4.77;;;8.90;58.60;;;;;;5067560;28;20043;-84
2021/04/27 06:37:28;;;;;;;9.37;4.03;;;8.90;57.80;;;;;;5069329;28;20135;-83
2021/04/27 06:39:53;;;;;;;8.10;3.83;;;9.00;59.10;;;;;;5071892;28;20449;-83
2021/04/27 06:42:19;;;;;;;8.13;4.27;;;9.10;60.90;;;;;;5057052;28;20127;-84
2021/04/27 06:44:45;;;;;;;12.80;4.60;;;9.10;57.90;;;;;;5073775;28;20450;-84
2021/04/27 06:47:11;;;;;;;8.13;4.00;;;9.10;57.70;;;;;;5073444;28;20052;-84
2021/04/27 06:49:37;;;;;;;9.57;3.60;;;9.20;56.50;;;;;;5055599;28;20068;-83
2021/04/27 06:52:05;;;;;;;7.33;3.90;;;9.20;55.30;;;;;;5055013;28;20392;-84
2021/04/27 06:54:31;;;;;;;5.80;2.93;;;9.30;54.40;;;;;;5054164;28;20078;-85
2021/04/27 06:56:57;;;;;;;5.87;3.10;;;9.30;54.20;;;;;;5062949;28;20024;-83
2021/04/27 06:59:30;;;;;;;7.73;3.23;;;9.40;53.40;;;;;;5074709;28;20030;-85
2021/04/27 07:01:55;;;;;;;8.67;3.10;;;9.40;53.20;;;;;;5093529;28;20019;-82
2021/04/27 07:04:21;;;;;;;6.23;2.83;;;9.50;53.00;;;;;;5096483;28;20448;-82
2021/04/27 07:06:47;;;;;;;6.40;2.70;;;9.50;52.00;;;;;;5091516;28;20028;-85
2021/04/27 07:09:12;;;;;;;8.27;3.00;;;9.60;51.80;;;;;;5074140;28;20043;-84
2021/04/27 07:11:38;;;;;;;7.10;3.20;;;9.70;51.90;;;;;;5073716;28;20038;-83
2021/04/27 07:14:05;;;;;;;8.03;2.70;;;9.70;52.20;;;;;;5072953;28;20028;-82
2021/04/27 07:16:31;;;;;;;6.63;3.10;;;9.70;51.60;;;;;;5091475;28;20031;-83
2021/04/27 07:18:57;;;;;;;5.70;3.10;;;9.70;51.30;;;;;;5072481;28;20020;-84
2021/04/27 07:21:23;;;;;;;6.23;2.77;;;9.80;51.00;;;;;;5092035;28;20109;-83
2021/04/27 07:23:49;;;;;;;3.83;2.50;;;9.80;50.80;;;;;;5073503;28;20032;-83
2021/04/27 07:26:15;;;;;;;5.37;2.60;;;9.80;50.90;;;;;;5074069;28;20093;-83
2021/04/27 07:28:41;;;;;;;5.13;2.87;;;9.80;51.10;;;;;;5074801;28;20104;-84
2021/04/27 07:31:08;;;;;;;5.97;2.83;;;9.90;50.90;;;;;;5073096;28;20452;-82
2021/04/27 07:33:34;;;;;;;8.60;2.77;;;10.00;50.70;;;;;;5074545;28;20103;-82
2021/04/27 07:36:00;;;;;;;4.10;2.50;;;10.00;50.80;;;;;;5092424;28;20088;-84
2021/04/27 07:38:25;;;;;;;9.83;2.53;;;10.00;50.80;;;;;;5073419;28;20603;-84
2021/04/27 07:40:51;;;;;;;6.73;2.50;;;10.10;50.80;;;;;;5074297;28;20035;-85
2021/04/27 07:43:17;;;;;;;3.80;2.03;;;10.20;49.90;;;;;;5075335;28;20132;-84
2021/04/27 07:45:43;;;;;;;5.87;2.40;;;10.20;49.70;;;;;;5078645;28;20032;-82
2021/04/27 07:48:09;;;;;;;5.17;2.13;;;10.20;50.00;;;;;;5100903;28;20383;-81
2021/04/27 07:50:35;;;;;;;7.37;2.23;;;10.20;48.60;;;;;;5080781;28;20119;-82
2021/04/27 07:53:03;;;;;;;4.43;2.30;;;10.30;48.30;;;;;;5079108;28;20035;-81
2021/04/27 07:55:29;;;;;;;4.60;2.20;;;10.20;47.80;;;;;;5097897;28;20020;-81
2021/04/27 07:57:54;;;;;;;4.10;1.90;;;10.30;48.60;;;;;;5079404;28;20021;-81
2021/04/27 08:00:22;;;;;;;4.10;2.00;;;10.40;48.70;;;;;;5078818;28;20027;-81
2021/04/27 08:02:49;;;;;;;8.03;2.40;;;10.40;48.60;;;;;;5097658;28;20031;-81
2021/04/27 08:05:16;;;;;;;4.30;2.10;;;10.40;48.20;;;;;;5080083;28;20114;-81
2021/04/27 08:07:42;;;;;;;5.33;2.27;;;10.40;48.00;;;;;;5098439;28;20032;-81
2021/04/27 08:10:12;;;;;;;4.33;2.10;;;10.50;48.30;;;;;;5081206;28;20034;-81
2021/04/27 08:12:38;;;;;;;7.00;2.40;;;10.50;48.60;;;;;;5099128;28;20379;-81
2021/04/27 08:15:04;;;;;;;3.57;2.03;;;10.60;48.10;;;;;;5099513;28;20044;-81
2021/04/27 08:17:30;;;;;;;5.67;2.10;;;10.50;47.80;;;;;;5081471;28;20433;-81
2021/04/27 08:19:56;;;;;;;5.77;2.37;;;10.60;48.30;;;;;;5099379;28;20020;-81
2021/04/27 08:22:21;;;;;;;7.17;2.53;;;10.60;47.70;;;;;;5080773;28;20026;-81
2021/04/27 08:24:47;;;;;;;5.33;2.30;;;10.70;48.00;;;;;;5081735;28;20490;-81
2021/04/27 08:27:17;;;;;;;3.87;2.27;;;10.70;48.10;;;;;;5080521;28;20110;-81
2021/04/27 08:29:43;;;;;;;5.07;2.10;;;10.80;48.20;;;;;;5080000;28;20028;-82
2021/04/27 08:32:10;;;;;;;4.37;2.30;;;10.80;48.40;;;;;;5081051;28;20027;-81
2021/04/27 08:34:36;;;;;;;4.77;2.23;;;10.80;48.00;;;;;;5080453;28;20245;-85
2021/04/27 08:37:02;;;;;;;4.67;2.27;;;10.80;48.10;;;;;;5083005;28;20107;-81
2021/04/27 08:39:28;;;;;;;5.13;2.20;;;10.80;48.00;;;;;;5107335;28;20027;-81
2021/04/27 08:41:54;;;;;;;4.23;1.90;;;10.80;48.10;;;;;;5107566;28;20065;-81
2021/04/27 08:44:21;;;;;;;5.93;2.40;;;10.90;48.20;;;;;;5107880;28;20032;-81
2021/04/27 08:46:47;;;;;;;7.20;2.47;;;10.90;46.50;;;;;;5106909;28;20031;-84
2021/04/27 08:49:13;;;;;;;6.07;2.70;;;10.90;47.10;;;;;;5087334;28;20142;-82
2021/04/27 08:51:38;;;;;;;7.40;2.87;;;10.90;47.60;;;;;;5088435;28;20036;-81
2021/04/27 08:54:06;;;;;;;3.90;2.20;;;11.00;47.90;;;;;;5107893;28;20028;-81
2021/04/27 08:56:32;;;;;;;6.33;2.40;;;11.00;47.50;;;;;;5091873;28;20031;-80
2021/04/27 08:58:58;;;;;;;4.13;2.10;;;11.00;47.10;;;;;;5092439;28;20016;-80
2021/04/27 09:01:24;;;;;;;4.87;2.60;;;11.10;47.30;;;;;;5092222;28;20020;-81
2021/04/27 09:03:51;;;;;;;5.60;2.30;;;11.10;47.30;;;;;;5092622;28;20100;-84
2021/04/27 09:06:19;;;;;;;3.77;2.10;;;11.10;47.60;;;;;;5086236;28;20032;-83
2021/04/27 09:08:46;;;;;;;7.17;2.47;;;11.20;47.20;;;;;;5107108;28;20399;-84
2021/04/27 09:11:38;;;;;;;6.90;2.50;;;11.20;47.00;;;;;;5089743;28;20483;-85
2021/04/27 09:14:21;;;;;;;5.17;2.07;;;11.20;54.10;;;;;;5081043;28;20032;-82
2021/04/27 09:16:52;;;;;;;4.00;2.30;;;11.30;51.20;;;;;;5089373;28;20016;-84
2021/04/27 09:19:35;;;;;;;3.57;2.20;;;11.40;49.10;;;;;;5083455;28;20028;-83
2021/04/27 09:22:14;;;;;;;6.47;2.40;;;11.40;47.00;;;;;;5101440;28;20035;-83
2021/04/27 09:24:47;;;;;;;5.13;2.33;;;11.50;50.20;;;;;;5073113;28;20066;-82
2021/04/27 09:27:24;;;;;;;4.97;2.20;;;11.50;47.10;;;;;;5106805;28;20425;-81
2021/04/27 09:29:50;;;;;;;3.60;2.00;;;11.50;47.00;;;;;;5107811;28;20032;-82
2021/04/27 09:32:31;;;;;;;4.03;2.00;;;11.60;46.90;;;;;;5088891;28;20027;-80
2021/04/27 09:34:56;;;;;;;4.30;1.93;;;11.60;47.70;;;;;;5108257;28;20024;-81
2021/04/27 09:37:22;;;;;;;3.40;2.00;;;11.60;46.30;;;;;;5109736;28;20032;-81
2021/04/27 09:39:50;;;;;;;6.77;2.50;;;11.60;45.20;;;;;;5090828;28;20031;-80
2021/04/27 09:42:21;;;;;;;3.70;2.23;;;11.60;44.80;;;;;;5084278;28;20028;-81
2021/04/27 09:44:53;;;;;;;4.17;2.13;;;11.60;44.60;;;;;;5083957;28;20024;-83
2021/04/27 09:47:27;;;;;;;10.93;2.57;;;11.70;45.10;;;;;;5102743;28;20073;-82
2021/04/27 09:50:04;;;;;;;4.60;2.40;;;11.80;44.00;;;;;;5082649;28;20032;-81
2021/04/27 09:52:33;;;;;;;4.83;2.07;;;11.80;44.10;;;;;;5101603;28;20020;-82
2021/04/27 09:55:06;;;;;;;4.28;2.08;;;11.80;44.50;;;;;;5082328;28;20391;-82
2021/04/27 09:57:35;;;;;;;4.07;2.20;;;11.80;44.70;;;;;;5081622;28;20503;-81
2021/04/27 10:00:20;;;;;;;4.38;2.25;;;11.90;43.60;;;;;;5103041;28;20075;-85
2021/04/27 10:02:46;;;;;;;3.23;2.13;;;11.90;43.70;;;;;;5079842;28;20024;-84
2021/04/27 10:05:12;;;;;;;4.20;2.20;;;11.90;43.50;;;;;;5079020;28;20020;-84
2021/04/27 10:07:39;;;;;;;7.30;2.50;;;11.90;43.40;;;;;;5097812;28;20500;-84
2021/04/27 10:10:11;;;;;;;6.03;2.20;;;12.00;42.90;;;;;;5095694;28;20065;-83
2021/04/27 10:12:38;;;;;;;4.33;2.23;;;12.00;42.80;;;;;;5096872;28;20031;-84
2021/04/27 10:15:05;;;;;;;3.77;2.10;;;12.00;42.80;;;;;;5078026;28;20031;-83
2021/04/27 10:17:30;;;;;;;4.63;2.20;;;12.10;43.40;;;;;;5077918;28;20103;-83
2021/04/27 10:19:58;;;;;;;4.93;2.33;;;12.10;42.60;;;;;;5074897;28;20070;-83
2021/04/27 10:22:26;;;;;;;4.70;2.37;;;12.10;41.80;;;;;;5093153;28;20116;-86
2021/04/27 10:24:52;;;;;;;4.67;2.50;;;12.10;42.20;;;;;;5075117;28;20035;-84
2021/04/27 10:27:24;;;;;;;5.03;2.67;;;12.10;42.50;;;;;;5075049;28;20024;-84
2021/04/27 10:30:17;;;;;;;3.53;2.00;;;12.10;42.10;;;;;;5073918;28;20082;-83
2021/04/27 10:32:44;;;;;;;3.33;2.07;;;12.10;42.20;;;;;;5093003;28;20059;-83
2021/04/27 10:35:12;;;;;;;3.90;2.33;;;12.20;43.00;;;;;;5077340;28;20484;-84
2021/04/27 10:38:01;;;;;;;3.47;2.40;;;12.20;41.40;;;;;;5096442;28;20381;-84
2021/04/27 10:41:01;;;;;;;3.42;2.08;;;12.20;41.30;;;;;;5077882;28;20017;-82
2021/04/27 10:43:27;;;;;;;5.63;2.63;;;12.20;41.90;;;;;;5077639;28;20032;-83
2021/04/27 10:45:57;;;;;;;5.20;2.30;;;12.30;41.70;;;;;;5081241;28;20439;-84
2021/04/27 10:48:44;;;;;;;5.07;2.30;;;12.30;41.20;;;;;;5100052;28;20055;-84
2021/04/27 10:51:19;;;;;;;5.60;2.37;;;12.30;41.10;;;;;;5079888;28;20535;-82
2021/04/27 10:54:02;;;;;;;6.43;2.50;;;12.50;40.60;;;;;;5082503;28;20020;-84
2021/04/27 10:56:58;;;;;;;5.43;2.17;;;12.40;40.00;;;;;;5081582;28;20027;-83
2021/04/27 10:59:26;;;;;;;4.70;2.40;;;12.40;40.30;;;;;;5099858;28;20031;-82
2021/04/27 11:02:12;;;;;;;6.63;2.60;;;12.40;40.60;;;;;;5082820;28;20028;-84
2021/04/27 11:04:48;;;;;;;5.77;2.23;;;12.40;39.90;;;;;;5099575;28;20051;-82
2021/04/27 11:07:19;;;;;;;4.90;2.10;;;12.40;40.30;;;;;;5078666;28;20056;-84
2021/04/27 11:10:08;;;;;;;4.50;2.43;;;12.40;40.70;;;;;;5077700;28;20020;-85
2021/04/27 11:12:44;;;;;;;4.22;2.38;;;12.40;40.40;;;;;;5073350;28;20081;-82
2021/04/27 11:15:27;;;;;;;6.23;2.30;;;12.50;40.60;;;;;;5098702;28;20024;-83
2021/04/27 11:17:56;;;;;;;6.30;2.20;;;12.50;40.10;;;;;;5079744;28;20064;-84
2021/04/27 11:21:06;;;;;;;6.17;2.83;;;12.50;40.90;;;;;;5078762;28;20054;-84
2021/04/27 11:23:41;;;;;;;5.90;2.80;;;12.50;40.90;;;;;;5080298;28;20016;-83
2021/04/27 11:26:28;;;;;;;4.17;2.60;;;12.60;41.00;;;;;;5079950;28;20153;-84
2021/04/27 11:28:59;;;;;;;4.30;2.60;;;12.50;39.40;;;;;;5080465;28;20115;-84
2021/04/27 11:31:26;;;;;;;5.63;2.30;;;12.60;39.90;;;;;;5080211;28;20088;-83
2021/04/27 11:33:59;;;;;;;3.33;2.30;;;12.50;39.50;;;;;;5079519;28;20091;-84
2021/04/27 11:36:38;;;;;;;3.27;2.03;;;12.60;40.40;;;;;;5097576;28;20116;-83
2021/04/27 11:39:10;;;;;;;4.13;2.53;;;12.60;40.10;;;;;;5098047;28;20012;-83
2021/04/27 11:41:47;;;;;;;3.87;2.30;;;12.60;40.00;;;;;;5079639;28;20111;-83
2021/04/27 11:44:13;;;;;;;3.90;2.30;;;12.70;39.70;;;;;;5078528;28;20039;-83
2021/04/27 11:47:17;;;;;;;3.97;2.47;;;12.70;40.00;;;;;;5079457;28;20028;-83
2021/04/27 11:49:49;;;;;;;5.93;2.57;;;12.60;39.90;;;;;;5078520;28;20039;-85
2021/04/27 11:52:36;;;;;;;5.50;2.57;;;12.70;38.30;;;;;;5097929;28;20048;-83
2021/04/27 11:55:04;;;;;;;4.90;2.50;;;12.70;38.00;;;;;;5066484;28;20032;-82
2021/04/27 11:57:29;;;;;;;4.23;2.40;;;12.70;38.20;;;;;;5077401;28;20073;-83
2021/04/27 12:00:00;;;;;;;5.77;2.60;;;12.80;38.70;;;;;;5077488;28;20020;-83
2021/04/27 12:02:31;;;;;;;3.80;2.40;;;12.80;39.30;;;;;;5077806;28;20480;-83
2021/04/27 12:04:58;;;;;;;3.40;2.20;;;12.80;40.00;;;;;;5095884;28;20028;-84
2021/04/27 12:07:30;;;;;;;5.30;2.87;;;12.80;38.90;;;;;;5096010;28;20024;-83
2021/04/27 12:09:57;;;;;;;5.27;2.77;;;12.80;38.70;;;;;;5101832;28;20028;-83
2021/04/27 12:12:24;;;;;;;8.30;2.87;;;13.00;37.90;;;;;;5084883;28;20542;-84
2021/04/27 12:14:55;;;;;;;5.37;2.40;;;13.00;37.30;;;;;;5083200;28;20044;-85
2021/04/27 12:17:29;;;;;;;11.27;6.67;;;13.00;37.40;;;;;;5079047;28;20488;-85
2021/04/27 12:20:09;;;;;;;19.80;11.70;;;13.10;37.70;;;;;;5079126;28;20026;-85
2021/04/27 12:22:50;;;;;;;12.27;7.17;;;13.10;38.50;;;;;;5076653;28;20040;-84
2021/04/27 12:25:25;;;;;;;6.87;4.10;;;13.10;38.60;;;;;;5077022;28;20496;-84
2021/04/27 12:28:00;;;;;;;4.97;3.00;;;13.10;39.00;;;;;;5075890;28;20050;-84
2021/04/27 12:30:25;;;;;;;6.93;3.70;;;13.10;38.90;;;;;;5076055;28;20024;-85
2021/04/27 12:33:02;;;;;;;4.57;2.70;;;13.20;38.30;;;;;;5078176;28;20031;-85
2021/04/27 12:35:31;;;;;;;4.07;2.80;;;13.20;38.90;;;;;;5079865;28;20028;-84
2021/04/27 12:38:07;;;;;;;4.30;2.47;;;13.30;37.20;;;;;;5079314;28;20020;-84
2021/04/27 12:40:41;;;;;;;3.77;2.47;;;13.30;37.30;;;;;;5078721;28;20028;-85
2021/04/27 12:43:08;;;;;;;6.53;3.13;;;13.20;37.90;;;;;;5078865;28;20488;-84
2021/04/27 12:45:45;;;;;;;4.50;2.53;;;13.30;37.70;;;;;;5078511;28;20024;-85
2021/04/27 12:48:11;;;;;;;3.80;2.40;;;13.20;37.30;;;;;;5078812;28;20031;-84
2021/04/27 12:51:05;;;;;;;5.50;2.50;;;13.30;38.00;;;;;;5078010;28;20032;-84
2021/04/27 12:53:42;;;;;;;5.07;2.33;;;13.30;38.90;;;;;;5076785;28;20102;-84
2021/04/27 12:56:16;;;;;;;5.67;2.63;;;13.30;38.70;;;;;;5078481;28;20031;-84
2021/04/27 12:58:44;;;;;;;5.00;2.30;;;13.40;38.00;;;;;;5096754;28;20040;-84
2021/04/27 13:01:17;;;;;;;3.73;2.60;;;13.40;38.10;;;;;;5077521;28;20016;-84